createdAt,value
2018-10-17T00:01:01.353Z,26.48
2018-10-17T00:03:28.811Z,21.90
2018-10-17T00:05:56.341Z,22.48
2018-10-17T00:08:23.860Z,21.30
2018-10-17T00:10:51.356Z,24.92
2018-10-17T00:13:18.841Z,23.98
2018-10-17T00:15:46.290Z,22.35
2018-10-17T00:18:13.760Z,22.40
2018-10-17T00:20:41.240Z,24.47
2018-10-17T00:23:08.781Z,26.80
2018-10-17T00:25:36.144Z,25.08
2018-10-17T00:28:03.723Z,23.18
2018-10-17T00:30:31.189Z,23.52
2018-10-17T00:32:58.701Z,25.32
2018-10-17T00:35:26.153Z,22.77
2018-10-17T00:37:53.600Z,22.62
2018-10-17T00:40:23.104Z,25.00
2018-10-17T00:42:51.124Z,22.00
2018-10-17T00:45:18.569Z,25.17
2018-10-17T00:47:46.027Z,22.62
2018-10-17T00:50:13.477Z,24.18
2018-10-17T00:52:40.932Z,25.08
2018-10-17T00:55:08.461Z,23.95
2018-10-17T00:57:35.991Z,25.15
2018-10-17T01:00:03.561Z,25.68
2018-10-17T01:02:31.165Z,25.30
2018-10-17T01:04:58.773Z,21.75
2018-10-17T01:07:26.282Z,23.77
2018-10-17T01:09:53.768Z,24.23
2018-10-17T01:12:21.244Z,19.67
2018-10-17T01:14:49.580Z,24.37
2018-10-17T01:17:17.063Z,23.30
2018-10-17T01:19:44.522Z,24.80
2018-10-17T01:22:11.998Z,26.82
2018-10-17T01:24:39.560Z,25.35
2018-10-17T01:27:07.044Z,23.05
2018-10-17T01:29:34.524Z,20.72
2018-10-17T01:32:02.025Z,26.45
2018-10-17T01:34:29.501Z,29.55
2018-10-17T01:36:57.019Z,22.75
2018-10-17T01:39:24.506Z,24.80
2018-10-17T01:41:51.989Z,23.47
2018-10-17T01:44:19.474Z,25.57
2018-10-17T01:46:46.927Z,23.20
2018-10-17T01:49:14.494Z,23.57
2018-10-17T01:51:41.922Z,23.18
2018-10-17T01:54:09.407Z,26.57
2018-10-17T01:56:36.883Z,25.00
2018-10-17T01:59:05.037Z,23.73
2018-10-17T02:01:32.504Z,23.77
2018-10-17T02:03:59.980Z,23.27
2018-10-17T02:06:27.442Z,23.57
2018-10-17T02:08:54.971Z,23.83
2018-10-17T02:11:22.466Z,22.22
2018-10-17T02:13:49.975Z,22.40
2018-10-17T02:16:17.452Z,22.48
2018-10-17T02:18:44.923Z,24.23
2018-10-17T02:21:12.411Z,23.87
2018-10-17T02:23:39.875Z,23.40
2018-10-17T02:26:07.325Z,26.60
2018-10-17T02:28:34.772Z,21.25
2018-10-17T02:31:02.267Z,22.55
2018-10-17T02:33:29.719Z,21.48
2018-10-17T02:35:57.261Z,25.02
2018-10-17T02:38:24.779Z,22.77
2018-10-17T02:40:52.385Z,25.72
2018-10-17T02:43:19.878Z,23.18
2018-10-17T02:45:47.383Z,20.70
2018-10-17T02:48:14.878Z,24.52
2018-10-17T02:50:42.392Z,22.17
2018-10-17T02:53:09.948Z,25.82
2018-10-17T02:55:37.381Z,22.07
2018-10-17T02:58:04.854Z,22.55
2018-10-17T03:00:32.357Z,23.92
2018-10-17T03:02:59.821Z,21.97
2018-10-17T03:05:27.292Z,21.23
2018-10-17T03:07:54.821Z,21.62
2018-10-17T03:10:22.327Z,19.50
2018-10-17T03:12:49.794Z,22.42
2018-10-17T03:15:17.252Z,17.42
2018-10-17T03:17:44.731Z,23.02
2018-10-17T03:20:12.213Z,19.75
2018-10-17T03:22:39.803Z,20.55
2018-10-17T03:25:08.208Z,20.85
2018-10-17T03:27:35.607Z,19.40
2018-10-17T03:30:03.160Z,19.23
2018-10-17T03:32:31.004Z,21.33
2018-10-17T03:34:58.479Z,21.57
2018-10-17T03:37:25.971Z,23.77
2018-10-17T03:39:53.500Z,16.60
2018-10-17T03:42:20.993Z,20.88
2018-10-17T03:44:48.448Z,17.77
2018-10-17T03:47:16.091Z,17.62
2018-10-17T03:49:43.620Z,19.25
2018-10-17T03:52:11.098Z,20.10
2018-10-17T03:54:38.610Z,16.62
2018-10-17T03:57:06.126Z,22.73
2018-10-17T03:59:33.779Z,22.22
2018-10-17T04:02:01.086Z,18.90
2018-10-17T04:04:28.600Z,22.02
2018-10-17T04:06:56.107Z,19.55
2018-10-17T04:09:23.526Z,20.62
2018-10-17T04:11:50.995Z,22.05
2018-10-17T04:14:18.476Z,23.10
2018-10-17T04:16:45.925Z,22.52
2018-10-17T04:19:13.410Z,21.45
2018-10-17T04:21:40.859Z,17.25
2018-10-17T04:24:08.336Z,22.25
2018-10-17T04:26:35.877Z,19.77
2018-10-17T04:29:03.433Z,22.85
2018-10-17T04:31:30.841Z,19.62
2018-10-17T04:33:58.329Z,20.82
2018-10-17T04:36:25.802Z,24.30
2018-10-17T04:38:53.275Z,20.77
2018-10-17T04:41:20.891Z,22.90
2018-10-17T04:43:48.264Z,19.37
2018-10-17T04:46:15.746Z,18.05
2018-10-17T04:48:43.206Z,20.65
2018-10-17T04:51:10.655Z,19.57
2018-10-17T04:53:38.119Z,23.85
2018-10-17T04:56:05.627Z,20.70
2018-10-17T04:58:33.129Z,23.00
2018-10-17T05:01:00.622Z,21.97
2018-10-17T05:03:28.059Z,17.73
2018-10-17T05:05:55.542Z,29.63
2018-10-17T05:08:23.135Z,19.05
2018-10-17T05:10:50.634Z,18.98
2018-10-17T05:13:18.121Z,21.97
2018-10-17T05:15:45.612Z,20.43
2018-10-17T05:18:13.076Z,25.00
2018-10-17T05:20:40.558Z,20.32
2018-10-17T05:23:08.150Z,20.95
2018-10-17T05:25:35.574Z,20.02
2018-10-17T05:28:03.097Z,24.15
2018-10-17T05:30:30.578Z,21.35
2018-10-17T05:32:58.080Z,22.52
2018-10-17T05:35:25.556Z,22.15
2018-10-17T05:37:53.166Z,25.08
2018-10-17T05:40:20.549Z,25.95
2018-10-17T05:42:48.034Z,22.22
2018-10-17T05:45:15.539Z,25.30
2018-10-17T05:47:43.025Z,25.55
2018-10-17T05:50:10.491Z,23.70
2018-10-17T05:52:37.977Z,23.92
2018-10-17T05:55:05.709Z,26.50
2018-10-17T05:57:33.131Z,26.50
2018-10-17T06:00:00.603Z,24.43
2018-10-17T06:02:30.788Z,26.90
2018-10-17T06:04:58.243Z,25.68
2018-10-17T06:07:25.708Z,24.43
2018-10-17T06:09:53.187Z,28.32
2018-10-17T06:12:20.765Z,28.83
2018-10-17T06:14:48.297Z,46.55
2018-10-17T06:17:15.814Z,47.35
2018-10-17T06:19:43.250Z,56.60
2018-10-17T06:22:10.791Z,34.90
2018-10-17T06:24:38.278Z,31.35
2018-10-17T06:27:05.820Z,30.88
2018-10-17T06:29:33.364Z,29.10
2018-10-17T06:32:00.832Z,33.63
2018-10-17T06:34:28.358Z,32.80
2018-10-17T06:36:55.835Z,30.10
2018-10-17T06:39:23.280Z,28.50
2018-10-17T06:41:50.756Z,33.00
2018-10-17T06:44:19.142Z,31.02
2018-10-17T06:46:46.716Z,32.90
2018-10-17T06:49:14.253Z,29.32
2018-10-17T06:51:41.686Z,26.52
2018-10-17T06:54:09.165Z,32.95
2018-10-17T06:56:36.684Z,28.87
2018-10-17T06:59:04.550Z,30.50
2018-10-17T07:01:32.457Z,32.60
2018-10-17T07:04:00.299Z,29.48
2018-10-17T07:06:27.854Z,29.25
2018-10-17T07:08:55.409Z,35.48
2018-10-17T07:11:23.008Z,25.68
2018-10-17T07:13:50.431Z,25.47
2018-10-17T07:16:18.097Z,27.80
2018-10-17T07:18:45.640Z,27.90
2018-10-17T07:21:14.189Z,27.50
2018-10-17T07:23:41.706Z,27.50
2018-10-17T07:26:09.236Z,25.03
2018-10-17T07:28:36.749Z,24.80
2018-10-17T07:31:04.470Z,33.47
2018-10-17T07:33:31.960Z,29.70
2018-10-17T07:35:59.483Z,26.90
2018-10-17T07:38:27.242Z,23.83
2018-10-17T07:40:54.814Z,26.97
2018-10-17T07:43:23.249Z,23.13
2018-10-17T07:45:51.068Z,21.47
2018-10-17T07:48:18.651Z,24.67
2018-10-17T07:50:46.148Z,23.77
2018-10-17T07:53:13.685Z,27.13
2018-10-17T07:55:41.168Z,23.03
2018-10-17T07:58:08.685Z,23.23
2018-10-17T08:00:36.217Z,23.17
2018-10-17T08:03:03.803Z,23.93
2018-10-17T08:05:31.390Z,24.40
2018-10-17T08:07:58.923Z,20.20
2018-10-17T08:10:26.446Z,20.60
2018-10-17T08:12:53.938Z,19.63
2018-10-17T08:15:22.439Z,18.80
2018-10-17T08:17:49.969Z,18.90
2018-10-17T08:20:17.475Z,18.40
2018-10-17T08:22:45.033Z,19.60
2018-10-17T08:25:12.725Z,20.00
2018-10-17T08:27:40.676Z,19.73
2018-10-17T08:30:09.082Z,20.37
2018-10-17T08:32:37.015Z,20.70
2018-10-17T08:35:04.651Z,20.37
2018-10-17T08:37:32.471Z,21.90
2018-10-17T08:39:59.732Z,21.33
2018-10-17T08:42:27.208Z,21.17
2018-10-17T08:44:54.873Z,20.77
2018-10-17T08:47:22.386Z,20.10
2018-10-17T08:49:49.913Z,19.33
2018-10-17T08:52:17.589Z,19.33
2018-10-17T08:54:45.163Z,18.97
2018-10-17T08:57:13.355Z,19.77
2018-10-17T08:59:40.929Z,20.23
2018-10-17T09:02:08.531Z,19.97
2018-10-17T09:04:36.327Z,20.47
2018-10-17T09:07:04.067Z,20.00
2018-10-17T09:09:31.596Z,21.23
2018-10-17T09:11:59.176Z,20.80
2018-10-17T09:14:26.706Z,20.50
2018-10-17T09:16:54.202Z,20.53
2018-10-17T09:19:21.783Z,21.97
2018-10-17T09:21:49.488Z,22.00
2018-10-17T09:24:19.024Z,22.10
2018-10-17T09:26:46.649Z,24.03
2018-10-17T09:29:14.185Z,23.90
2018-10-17T09:31:41.666Z,24.27
2018-10-17T09:34:09.241Z,23.93
2018-10-17T09:36:36.864Z,31.33
2018-10-17T09:39:06.892Z,29.07
2018-10-17T09:41:34.396Z,31.87
2018-10-17T09:44:02.177Z,24.50
2018-10-17T09:46:29.701Z,23.03
2018-10-17T09:48:57.203Z,29.30
2018-10-17T09:51:24.737Z,23.10
2018-10-17T09:53:52.338Z,23.33
2018-10-17T09:56:19.903Z,26.40
2018-10-17T09:58:47.393Z,25.67
2018-10-17T10:02:19.219Z,25.20
2018-10-17T10:04:46.704Z,20.27
2018-10-17T10:07:14.209Z,20.87
2018-10-17T10:09:41.678Z,20.33
2018-10-17T10:12:09.225Z,21.40
2018-10-17T10:14:36.696Z,17.83
2018-10-17T10:17:04.364Z,15.83
2018-10-17T10:19:31.838Z,16.97
2018-10-17T10:21:59.501Z,15.60
2018-10-17T10:24:27.011Z,15.53
2018-10-17T10:26:55.290Z,14.77
2018-10-17T10:29:22.830Z,15.27
2018-10-17T10:31:50.377Z,14.23
2018-10-17T10:34:17.884Z,15.27
2018-10-17T10:36:45.327Z,14.03
2018-10-17T10:39:13.063Z,15.43
2018-10-17T10:41:40.952Z,14.10
2018-10-17T10:44:08.606Z,15.20
2018-10-17T10:46:36.067Z,16.50
2018-10-17T10:49:03.764Z,14.07
2018-10-17T10:51:31.274Z,16.83
2018-10-17T10:53:58.858Z,13.77
2018-10-17T10:56:26.271Z,16.70
2018-10-17T10:58:53.780Z,14.50
2018-10-17T11:01:21.612Z,16.47
2018-10-17T11:03:49.087Z,19.40
2018-10-17T11:06:16.606Z,17.87
2018-10-17T11:08:44.104Z,13.40
2018-10-17T11:11:11.704Z,13.80
2018-10-17T11:13:39.173Z,15.23
2018-10-17T11:16:06.876Z,16.20
2018-10-17T11:18:34.359Z,14.83
2018-10-17T11:21:01.913Z,15.20
2018-10-17T11:23:29.323Z,15.73
2018-10-17T11:25:56.825Z,16.47
2018-10-17T11:28:24.355Z,16.10
2018-10-17T11:30:51.841Z,18.10
2018-10-17T11:33:19.419Z,17.43
2018-10-17T11:35:46.845Z,18.97
2018-10-17T11:38:14.331Z,15.80
2018-10-17T11:40:41.982Z,20.23
2018-10-17T11:43:09.364Z,18.93
2018-10-17T11:45:36.825Z,17.00
2018-10-17T11:48:04.462Z,18.40
2018-10-17T11:50:31.984Z,18.40
2018-10-17T11:52:59.504Z,15.77
2018-10-17T11:55:27.014Z,17.00
2018-10-17T11:57:54.520Z,18.00
2018-10-17T12:00:22.043Z,21.87
2018-10-17T12:02:49.518Z,18.67
2018-10-17T12:05:17.280Z,21.10
2018-10-17T12:07:44.638Z,17.90
2018-10-17T12:10:12.102Z,18.50
2018-10-17T12:12:39.637Z,18.50
2018-10-17T12:15:10.885Z,19.20
2018-10-17T12:17:38.436Z,21.07
2018-10-17T12:20:08.006Z,18.27
2018-10-17T12:22:35.560Z,20.30
2018-10-17T12:25:03.164Z,18.60
2018-10-17T12:27:30.695Z,18.90
2018-10-17T12:29:58.199Z,21.80
2018-10-17T12:32:25.685Z,19.40
2018-10-17T12:34:53.176Z,22.97
2018-10-17T12:37:20.678Z,23.30
2018-10-17T12:39:48.271Z,21.10
2018-10-17T12:42:15.704Z,21.77
2018-10-17T12:44:43.236Z,18.97
2018-10-17T12:47:10.726Z,19.63
2018-10-17T12:49:38.279Z,20.07
2018-10-17T12:52:05.897Z,26.70
2018-10-17T12:54:33.278Z,20.40
2018-10-17T12:57:00.815Z,20.03
2018-10-17T12:59:28.341Z,21.27
2018-10-17T13:01:55.807Z,19.80
2018-10-17T13:04:23.291Z,30.77
2018-10-17T13:06:50.785Z,24.50
2018-10-17T13:09:18.243Z,21.50
2018-10-17T13:11:45.711Z,20.13
2018-10-17T13:14:13.192Z,22.50
2018-10-17T13:16:40.715Z,21.57
2018-10-17T13:19:08.221Z,22.17
2018-10-17T13:21:35.732Z,20.27
2018-10-17T13:24:03.219Z,21.20
2018-10-17T13:26:30.730Z,21.07
2018-10-17T13:28:58.305Z,22.43
2018-10-17T13:31:25.856Z,22.73
2018-10-17T13:33:53.359Z,22.07
2018-10-17T13:36:20.816Z,23.30
2018-10-17T13:38:48.370Z,26.50
2018-10-17T13:41:15.934Z,22.30
2018-10-17T13:43:43.437Z,24.93
2018-10-17T13:46:10.932Z,26.40
2018-10-17T13:48:38.456Z,23.27
2018-10-17T13:51:05.981Z,23.80
2018-10-17T13:53:33.509Z,24.37
2018-10-17T13:56:01.030Z,25.77
2018-10-17T13:58:28.644Z,25.23
2018-10-17T14:00:56.124Z,23.43
2018-10-17T14:03:23.581Z,26.27
2018-10-17T14:05:51.108Z,26.23
2018-10-17T14:08:18.619Z,25.50
2018-10-17T14:10:46.177Z,24.90
2018-10-17T14:13:13.660Z,28.67
2018-10-17T14:15:41.147Z,26.80
2018-10-17T14:18:08.757Z,25.90
2018-10-17T14:20:36.192Z,25.07
2018-10-17T14:23:03.861Z,29.37
2018-10-17T14:25:31.374Z,26.50
2018-10-17T14:27:58.918Z,28.37
2018-10-17T14:30:26.412Z,24.23
2018-10-17T14:32:53.912Z,26.47
2018-10-17T14:35:21.391Z,24.53
2018-10-17T14:37:48.913Z,26.30
2018-10-17T14:40:16.362Z,27.00
2018-10-17T14:42:43.869Z,24.07
2018-10-17T14:45:11.337Z,26.47
2018-10-17T14:47:39.250Z,29.40
2018-10-17T14:50:06.795Z,28.40
2018-10-17T14:52:34.569Z,26.30
2018-10-17T14:55:02.149Z,25.33
2018-10-17T14:57:30.036Z,29.20
2018-10-17T14:59:57.523Z,25.53
2018-10-17T15:02:25.027Z,27.63
2018-10-17T15:04:52.555Z,27.93
2018-10-17T15:07:20.005Z,25.50
2018-10-17T15:09:47.563Z,28.03
2018-10-17T15:12:14.993Z,24.77
2018-10-17T15:14:42.479Z,24.30
2018-10-17T15:17:09.967Z,27.70
2018-10-17T15:19:37.447Z,28.47
2018-10-17T15:22:05.002Z,28.03
2018-10-17T15:24:32.613Z,23.70
2018-10-17T15:27:00.148Z,23.33
2018-10-17T15:29:27.590Z,24.13
2018-10-17T15:31:55.192Z,19.83
2018-10-17T15:34:22.659Z,22.10
2018-10-17T15:36:50.271Z,24.77
2018-10-17T15:39:17.770Z,23.70
2018-10-17T15:41:46.320Z,24.10
2018-10-17T15:44:13.789Z,22.80
2018-10-17T15:46:41.260Z,24.57
2018-10-17T15:49:08.808Z,25.23
2018-10-17T15:51:36.303Z,26.73
2018-10-17T15:54:03.943Z,25.23
2018-10-17T15:56:31.376Z,26.37
2018-10-17T15:58:58.902Z,26.77
2018-10-17T16:01:26.459Z,29.60
2018-10-17T16:03:53.920Z,29.10
2018-10-17T16:06:21.478Z,25.63
2018-10-17T16:08:49.001Z,29.23
2018-10-17T16:11:16.522Z,25.33
2018-10-17T16:13:44.026Z,26.27
2018-10-17T16:16:11.533Z,25.93
2018-10-17T16:18:39.012Z,25.10
2018-10-17T16:21:06.489Z,32.60
2018-10-17T16:23:34.033Z,28.43
2018-10-17T16:26:01.610Z,28.03
2018-10-17T16:28:29.117Z,32.10
2018-10-17T16:30:56.653Z,26.57
2018-10-17T16:33:24.103Z,38.07
2018-10-17T16:35:51.620Z,25.70
2018-10-17T16:38:19.210Z,26.30
2018-10-17T16:40:46.698Z,24.05
2018-10-17T16:43:14.192Z,28.15
2018-10-17T16:45:41.721Z,29.37
2018-10-17T16:48:09.347Z,30.77
2018-10-17T16:50:36.945Z,28.90
2018-10-17T16:53:04.302Z,28.13
2018-10-17T16:55:31.816Z,28.38
2018-10-17T16:57:59.319Z,27.05
2018-10-17T17:00:26.800Z,27.67
2018-10-17T17:02:54.365Z,32.08
2018-10-17T17:05:21.879Z,29.95
2018-10-17T17:07:49.410Z,30.17
2018-10-17T17:10:17.057Z,30.35
2018-10-17T17:12:44.506Z,29.70
2018-10-17T17:15:12.228Z,29.67
2018-10-17T17:17:39.764Z,30.17
2018-10-17T17:20:08.709Z,31.87
2018-10-17T17:22:36.592Z,31.57
2018-10-17T17:25:04.229Z,32.58
2018-10-17T17:27:31.784Z,34.45
2018-10-17T17:29:59.385Z,31.90
2018-10-17T17:32:26.885Z,33.95
2018-10-17T17:34:54.369Z,34.45
2018-10-17T17:37:21.854Z,32.90
2018-10-17T17:39:49.334Z,36.28
2018-10-17T17:42:16.811Z,35.73
2018-10-17T17:44:44.314Z,40.70
2018-10-17T17:47:11.850Z,40.20
2018-10-17T17:49:39.311Z,41.45
2018-10-17T17:52:06.904Z,65.67
2018-10-17T17:54:34.394Z,80.90
2018-10-17T17:57:01.893Z,68.97
2018-10-17T17:59:29.393Z,61.77
2018-10-17T18:01:56.852Z,44.75
2018-10-17T18:04:24.455Z,38.17
2018-10-17T18:06:52.395Z,38.25
2018-10-17T18:09:20.013Z,34.73
2018-10-17T18:11:47.651Z,36.40
2018-10-17T18:14:15.240Z,28.57
2018-10-17T18:16:42.754Z,32.75
2018-10-17T18:19:10.289Z,34.35
2018-10-17T18:21:37.860Z,34.67
2018-10-17T18:24:05.384Z,31.82
2018-10-17T18:26:33.079Z,31.55
2018-10-17T18:29:00.547Z,30.85
2018-10-17T18:31:28.064Z,33.73
2018-10-17T18:33:55.829Z,31.52
2018-10-17T18:36:23.270Z,30.75
2018-10-17T18:38:50.773Z,30.57
2018-10-17T18:41:18.305Z,34.20
2018-10-17T18:43:45.808Z,30.65
2018-10-17T18:46:13.294Z,30.40
2018-10-17T18:48:40.942Z,30.95
2018-10-17T18:51:08.463Z,32.58
2018-10-17T18:53:35.887Z,32.20
2018-10-17T18:56:03.545Z,33.05
2018-10-17T18:58:30.934Z,31.33
2018-10-17T19:00:58.458Z,38.10
2018-10-17T19:03:25.933Z,32.90
2018-10-17T19:05:53.464Z,32.15
2018-10-17T19:08:21.066Z,32.88
2018-10-17T19:10:48.494Z,33.00
2018-10-17T19:13:16.011Z,34.90
2018-10-17T19:15:43.694Z,34.43
2018-10-17T19:18:11.203Z,32.63
2018-10-17T19:20:38.725Z,34.50
2018-10-17T19:23:06.227Z,32.65
2018-10-17T19:25:33.789Z,33.45
2018-10-17T19:28:01.456Z,31.97
2018-10-17T19:30:29.000Z,32.30
2018-10-17T19:32:56.573Z,38.50
2018-10-17T19:35:24.254Z,32.80
2018-10-17T19:37:51.826Z,33.40
2018-10-17T19:40:19.430Z,37.78
2018-10-17T19:42:46.971Z,32.98
2018-10-17T19:45:14.651Z,37.10
2018-10-17T19:47:42.107Z,41.73
2018-10-17T19:50:09.623Z,38.20
2018-10-17T19:52:37.213Z,40.15
2018-10-17T19:55:05.746Z,38.15
2018-10-17T19:57:33.275Z,40.35
2018-10-17T20:00:00.799Z,39.30
2018-10-17T20:02:28.307Z,38.92
2018-10-17T20:04:55.878Z,37.45
2018-10-17T20:07:23.564Z,42.60
2018-10-17T20:09:51.076Z,46.35
2018-10-17T20:12:18.583Z,46.45
2018-10-17T20:14:46.260Z,50.55
2018-10-17T20:17:13.790Z,47.73
2018-10-17T20:19:41.333Z,49.80
2018-10-17T20:22:10.703Z,44.15
2018-10-17T20:24:38.288Z,45.10
2018-10-17T20:27:06.349Z,48.73
2018-10-17T20:29:33.840Z,44.88
2018-10-17T20:32:01.331Z,46.08
2018-10-17T20:34:28.859Z,43.68
2018-10-17T20:36:56.387Z,46.30
2018-10-17T20:39:24.059Z,42.88
2018-10-17T20:41:51.599Z,42.85
2018-10-17T20:44:19.136Z,51.63
2018-10-17T20:46:46.869Z,50.78
2018-10-17T20:49:14.399Z,54.70
2018-10-17T20:51:42.040Z,50.73
2018-10-17T20:54:09.582Z,53.75
2018-10-17T20:56:37.576Z,43.70
2018-10-17T20:59:05.212Z,45.78
2018-10-17T21:01:32.699Z,45.60
2018-10-17T21:04:00.207Z,42.85
2018-10-17T21:06:27.858Z,44.63
2018-10-17T21:08:55.390Z,42.08
2018-10-17T21:11:23.005Z,46.55
2018-10-17T21:13:50.516Z,46.65
2018-10-17T21:16:18.110Z,46.18
2018-10-17T21:18:45.722Z,47.35
2018-10-17T21:21:13.230Z,49.18
2018-10-17T21:23:40.744Z,42.80
2018-10-17T21:26:08.273Z,42.90
2018-10-17T21:28:35.838Z,45.08
2018-10-17T21:31:03.375Z,47.20
2018-10-17T21:33:30.937Z,46.77
2018-10-17T21:35:58.463Z,48.30
2018-10-17T21:38:25.945Z,49.27
2018-10-17T21:40:53.533Z,46.23
2018-10-17T21:43:21.068Z,47.80
2018-10-17T21:45:48.588Z,44.33
2018-10-17T21:48:16.057Z,43.25
2018-10-17T21:50:43.546Z,46.92
2018-10-17T21:53:11.012Z,46.25
2018-10-17T21:55:38.530Z,47.43
2018-10-17T21:58:06.005Z,46.88
2018-10-17T22:00:33.545Z,47.55
2018-10-17T22:03:01.028Z,44.10
2018-10-17T22:05:28.520Z,48.95
2018-10-17T22:07:55.999Z,45.15
2018-10-17T22:10:23.509Z,49.42
2018-10-17T22:12:51.012Z,46.73
2018-10-17T22:15:18.527Z,47.70
2018-10-17T22:17:45.997Z,48.17
2018-10-17T22:20:13.577Z,50.95
2018-10-17T22:22:41.071Z,46.08
2018-10-17T22:25:08.629Z,51.18
2018-10-17T22:27:36.117Z,53.23
2018-10-17T22:30:04.018Z,47.45
2018-10-17T22:32:31.457Z,47.53
2018-10-17T22:34:58.946Z,49.85
2018-10-17T22:37:26.495Z,49.33
2018-10-17T22:39:54.030Z,47.15
2018-10-17T22:42:21.490Z,50.45
2018-10-17T22:44:48.977Z,51.20
2018-10-17T22:47:16.490Z,44.67
2018-10-17T22:49:44.006Z,48.58
2018-10-17T22:52:11.506Z,47.13
2018-10-17T22:54:38.994Z,47.38
2018-10-17T22:57:06.500Z,51.85
2018-10-17T22:59:34.011Z,49.83
2018-10-17T23:02:01.608Z,44.90
2018-10-17T23:04:29.054Z,47.33
2018-10-17T23:06:56.586Z,44.83
2018-10-17T23:09:24.136Z,44.90
2018-10-17T23:11:51.649Z,48.55
2018-10-17T23:14:19.168Z,53.83
2018-10-17T23:16:46.682Z,53.68
2018-10-17T23:19:14.221Z,51.23
2018-10-17T23:21:41.817Z,46.60
2018-10-17T23:24:09.320Z,46.30
2018-10-17T23:26:36.830Z,48.30
2018-10-17T23:29:04.360Z,52.27
2018-10-17T23:31:31.853Z,45.50
2018-10-17T23:33:59.337Z,48.78
2018-10-17T23:36:26.847Z,55.12
2018-10-17T23:38:54.356Z,50.92
2018-10-17T23:41:22.245Z,45.43
2018-10-17T23:43:49.741Z,50.40
2018-10-17T23:46:17.241Z,43.98
2018-10-17T23:48:44.750Z,45.55
2018-10-17T23:51:12.233Z,44.93
2018-10-17T23:53:39.691Z,52.55
2018-10-17T23:56:07.556Z,55.15
2018-10-17T23:58:34.991Z,48.55
